Latest Weather Observations for Condobolin Airport

IDN60801

Issued at 11:04 pm EDT Saturday 28 February 2015 (issued every 30 minutes, with the page automatically refreshed every 10 minutes)

About weather observations | Map of weather stations | Latest weather observations for NSW | Other Formats
Station Details ID: 050137 Name: CONDOBOLIN AIRPORT AWS Lat: -33.07 Lon: 147.21 Height: 192.6 m
Data from the previous 72 hours. | See also: Recent months at Condobolin Airport
Date/Time
EDT
Temp
°C
App
Temp
°C
Dew
Point
Rel
Hum
%
Delta-T
°C
Wind Press
QNH
hPa
Press
MSL
hPa
Rain
since 9 am
mm
Dir
 
Spd
km/h
Gust
km/h
Spd
kts
Gust
kts
28/11:00pm 27.0 23.8 8.4 31 10.2 NNE 15 17 8 9 1005.8 1004.7 0.0
28/10:30pm 27.9 24.4 8.7 30 10.6 NNE 17 19 9 10 1006.0 1004.9 0.0
28/10:00pm 27.3 23.9 7.7 29 10.6 NNE 15 17 8 9 1006.0 1004.9 0.0
28/09:30pm 28.7 25.4 7.9 27 11.4 NNE 15 17 8 9 1005.7 1004.6 0.0
28/09:00pm 30.8 27.3 7.3 23 12.9 NE 15 22 8 12 1005.4 1004.3 0.0
28/08:30pm 28.8 25.7 5.6 23 12.2 NE 11 13 6 7 1005.1 1004.0 0.0
28/08:00pm 30.9 27.6 4.6 19 13.8 NNE 11 13 6 7 1004.8 1003.7 0.0
28/07:30pm 32.7 29.5 5.3 18 14.7 N 11 15 6 8 1004.7 1003.6 0.0
28/07:00pm 34.7 31.1 5.2 16 16.0 N 13 19 7 10 1004.5 1003.4 0.0
28/06:30pm 35.0 31.9 5.4 16 16.1 N 11 24 6 13 1004.4 1003.3 0.0
28/06:00pm 35.2 32.1 5.6 16 16.2 NNW 11 20 6 11 1004.4 1003.3 0.0
28/05:30pm 35.9 32.7 5.2 15 16.7 WNW 11 15 6 8 1004.4 1003.3 0.0
28/05:00pm 36.2 32.0 5.5 15 16.8 NNW 17 26 9 14 1004.5 1003.4 0.0
28/04:30pm 36.4 33.9 6.6 16 16.6 WNW 9 17 5 9 1004.7 1003.6 0.0
28/04:00pm 37.0 34.2 7.0 16 16.9 N 11 20 6 11 1005.2 1004.1 0.0
28/03:30pm 36.8 34.2 7.8 17 16.5 NE 11 24 6 13 1005.4 1004.3 0.0
28/03:00pm 35.7 33.6 6.0 16 16.4 SW 6 15 3 8 1005.7 1004.6 0.0
28/02:30pm 35.6 31.6 6.8 17 16.0 WNW 17 26 9 14 1006.3 1005.2 0.0
28/02:00pm 35.2 32.3 8.1 19 15.4 NNW 13 26 7 14 1006.8 1005.7 0.0
28/01:30pm 35.4 31.8 8.3 19 15.5 NW 17 28 9 15 1007.1 1006.1 0.0
28/01:00pm 34.4 30.8 8.2 20 14.8 NNE 17 26 9 14 1007.5 1006.5 0.0
28/12:30pm 34.6 31.2 11.1 24 13.9 N 20 32 11 17 1008.0 1007.0 0.0
28/12:00pm 33.2 29.9 12.8 29 12.3 N 22 32 12 17 1008.3 1007.3 0.0
28/11:30am 32.9 29.6 14.0 32 11.6 N 24 33 13 18 1008.8 1007.7 0.0
28/11:00am 31.3 28.3 14.9 37 10.2 N 24 35 13 19 1009.1 1008.0 0.0
28/10:30am 30.3 27.4 15.2 40 9.3 N 24 32 13 17 1009.2 1008.1 0.0
28/10:00am 29.1 25.6 15.6 44 8.4 N 28 37 15 20 1009.3 1008.2 0.0
28/09:30am 28.0 25.1 15.0 45 8.0 NNE 24 32 13 17 1009.1 1008.0 0.0
28/09:00am 26.5 24.5 15.5 50 6.8 NNE 20 32 11 17 1008.9 1007.8 0.0
28/08:30am 25.3 23.5 15.9 56 5.8 NE 20 28 11 15 1008.7 1007.6 0.0
28/08:00am 23.9 22.4 15.4 59 5.2 NNE 17 26 9 14 1008.5 1007.5 0.0
28/07:30am 23.7 22.3 15.5 60 5.0 NE 17 20 9 11 1008.2 1007.2 0.0
28/07:00am 23.2 22.0 15.0 60 4.9 NE 15 20 8 11 1007.8 1006.8 0.0
28/06:30am 23.2 22.0 15.0 60 4.9 NE 15 19 8 10 1007.9 1006.9 0.0
28/06:00am 23.2 21.6 13.9 56 5.5 NNE 15 19 8 10 1008.1 1007.1 0.0
28/05:30am 23.3 22.7 13.5 54 5.7 NE 9 13 5 7 1008.0 1007.0 0.0
28/05:00am 23.3 23.0 12.6 51 6.2 NE 6 11 3 6 1007.9 1006.9 0.0
28/04:30am 23.5 22.9 12.2 49 6.5 NNE 7 13 4 7 1007.8 1006.8 0.0
28/04:00am 23.4 22.4 11.1 46 6.9 N 7 13 4 7 1007.6 1006.6 0.0
28/03:30am 21.3 19.3 8.6 44 6.8 NNE 9 11 5 6 1007.8 1006.8 0.0
28/03:00am 21.5 19.8 10.0 48 6.3 ENE 9 15 5 8 1007.8 1006.8 0.0
28/02:30am 22.0 20.7 9.9 46 6.6 WNW 7 7 4 4 1007.8 1006.8 0.0
28/02:00am 22.2 22.4 10.7 48 6.4 CALM 0 0 0 0 1007.8 1006.8 0.0
28/01:30am 22.2 22.5 11.0 49 6.2 CALM 0 6 0 3 1007.7 1006.7 0.0
28/01:00am 21.9 22.0 10.1 47 6.5 CALM 0 0 0 0 1007.8 1006.8 0.0
28/12:30am 22.3 22.4 10.1 46 6.7 CALM 0 0 0 0 1007.9 1006.9 0.0
28/12:00am 22.3 21.9 8.4 41 7.4 CALM 0 0 0 0 1007.9 1006.9 0.0
 
Date/Time
EDT
Temp
°C
App
Temp
°C
Dew
Point
Rel
Hum
%
Delta-T
°C
Wind Press
QNH
hPa
Press
MSL
hPa
Rain
since 9 am
mm
Dir
 
Spd
km/h
Gust
km/h
Spd
kts
Gust
kts
27/11:30pm 22.8 22.7 9.6 43 7.2 CALM 0 0 0 0 1007.9 1006.9 0.0
27/11:00pm 23.7 23.4 8.5 38 8.2 CALM 0 0 0 0 1007.9 1006.9 0.0
27/10:30pm 23.5 23.0 8.0 37 8.3 CALM 0 0 0 0 1007.9 1006.9 0.0
27/10:00pm 23.9 23.4 7.9 36 8.5 CALM 0 0 0 0 1007.8 1006.8 0.0
27/09:30pm 26.3 25.6 6.9 29 10.3 CALM 0 0 0 0 1007.7 1006.7 0.0
27/09:00pm 26.5 25.7 6.5 28 10.6 CALM 0 0 0 0 1007.4 1006.4 0.0
27/08:30pm 27.7 26.6 5.3 24 11.7 CALM 0 0 0 0 1007.2 1006.2 0.0
27/08:00pm 30.0 28.4 4.6 20 13.3 SE 2 6 1 3 1006.7 1005.6 0.0
27/07:30pm 31.2 28.2 4.1 18 14.1 SE 9 13 5 7 1006.5 1005.4 0.0
27/07:00pm 32.5 28.9 5.1 18 14.6 S 13 22 7 12 1006.2 1005.1 0.0
27/06:30pm 33.1 30.8 4.8 17 15.1 S 6 15 3 8 1006.0 1004.9 0.0
27/06:00pm 33.3 31.0 5.0 17 15.2 SSW 6 13 3 7 1005.9 1004.8 0.0
27/05:30pm 33.8 29.4 4.5 16 15.6 SW 17 24 9 13 1005.9 1004.8 0.0
27/05:00pm 33.4 30.9 5.0 17 15.2 SSE 7 22 4 12 1006.2 1005.1 0.0
27/04:30pm 33.5 30.9 4.2 16 15.5 SSE 7 17 4 9 1006.3 1005.2 0.0
27/04:00pm 33.8 31.4 5.4 17 15.4 ESE 7 15 4 8 1006.6 1005.5 0.0
27/03:30pm 32.9 29.6 4.6 17 15.0 WSW 11 26 6 14 1006.9 1005.8 0.0
27/03:00pm 32.7 28.6 4.5 17 14.9 WSW 15 26 8 14 1007.3 1006.3 0.0
27/02:30pm 32.2 28.8 5.7 19 14.2 W 13 20 7 11 1007.6 1006.6 0.0
27/02:00pm 31.9 29.2 5.4 19 14.2 ENE 9 17 5 9 1008.0 1007.0 0.0
27/01:30pm 32.2 30.0 6.4 20 14.0 S 7 15 4 8 1008.7 1007.6 0.0
27/01:00pm 31.2 28.1 5.6 20 13.7 SSW 11 20 6 11 1009.0 1007.9 0.0
27/12:30pm 31.0 27.4 3.1 17 14.3 WSW 11 17 6 9 1009.6 1008.5 0.0
27/12:00pm 29.7 27.7 8.7 27 11.7 SSW 9 15 5 8 1009.6 1008.5 0.0
27/11:30am 30.2 29.1 10.7 30 11.2 N 7 11 4 6 1010.1 1009.0 0.0
27/11:00am 29.5 29.1 12.4 35 10.1 NNW 6 11 3 6 1010.2 1009.1 0.0
27/10:30am 27.5 27.1 12.3 39 8.9 W 6 11 3 6 1010.2 1009.1 0.0
27/10:00am 26.2 26.2 12.3 42 8.1 WSW 4 9 2 5 1010.3 1009.2 0.0
27/09:30am 24.8 24.9 11.4 43 7.6 N 2 9 1 5 1010.0 1008.9 0.0
27/09:00am 23.0 22.4 10.4 45 7.0 ESE 4 9 2 5 1010.0 1008.9 0.0
27/08:30am 21.5 19.6 10.6 50 6.0 ESE 11 15 6 8 1009.8 1008.7 0.0
27/08:00am 19.7 19.5 11.7 60 4.5 ENE 4 7 2 4 1009.5 1008.4 0.0
27/07:30am 17.1 17.4 10.9 67 3.4 CALM 0 0 0 0 1009.2 1008.1 0.0
27/07:00am 15.6 15.7 10.2 70 2.9 CALM 0 0 0 0 1008.9 1007.8 0.0
27/06:30am 15.6 15.6 9.9 69 3.0 CALM 0 6 0 3 1008.3 1007.3 0.0
27/06:00am 16.2 16.3 10.1 67 3.2 CALM 0 0 0 0 1007.9 1006.9 0.0
27/05:30am 16.9 17.1 10.5 66 3.4 CALM 0 6 0 3 1007.8 1006.8 0.0
27/05:00am 16.2 15.8 9.8 66 3.4 ENE 2 9 1 5 1007.7 1006.7 0.0
27/04:30am 17.7 17.6 9.3 58 4.4 CALM 0 0 0 0 1007.8 1006.8 0.0
27/04:00am 18.1 17.5 8.9 55 4.8 W 2 6 1 3 1007.8 1006.8 0.0
27/03:30am 17.9 16.7 9.5 58 4.5 WSW 6 9 3 5 1007.9 1006.9 0.0
27/03:00am 17.8 17.6 8.9 56 4.7 CALM 0 0 0 0 1008.0 1007.0 0.0
27/02:30am 18.6 17.6 8.8 53 5.1 W 4 7 2 4 1008.1 1007.1 0.0
27/02:00am 19.6 19.3 8.6 49 5.8 CALM 0 0 0 0 1008.1 1007.1 0.0
27/01:30am 20.6 20.2 8.3 45 6.5 CALM 0 4 0 2 1008.5 1007.5 0.0
27/01:00am 21.3 20.7 8.9 45 6.6 W 2 6 1 3 1008.5 1007.5 0.0
27/12:30am 21.3 21.0 8.6 44 6.8 CALM 0 0 0 0 1008.5 1007.5 0.0
27/12:00am 22.1 19.9 7.9 40 7.5 SW 9 9 5 5 1008.7 1007.6 0.0
 
Date/Time
EDT
Temp
°C
App
Temp
°C
Dew
Point
Rel
Hum
%
Delta-T
°C
Wind Press
QNH
hPa
Press
MSL
hPa
Rain
since 9 am
mm
Dir
 
Spd
km/h
Gust
km/h
Spd
kts
Gust
kts
26/11:30pm 23.1 20.5 7.6 37 8.2 SSW 11 15 6 8 1008.4 1007.4 0.0
26/11:00pm 23.3 20.9 7.0 35 8.5 SSW 9 13 5 7 1008.3 1007.3 0.0
26/10:30pm 24.1 21.6 6.4 32 9.2 S 9 11 5 6 1008.3 1007.3 0.0
26/10:00pm 24.8 22.1 5.6 29 9.9 SSW 9 11 5 6 1008.2 1007.2 0.0
26/09:30pm 24.3 20.6 4.6 28 9.9 SSW 13 15 7 8 1007.6 1006.6 0.0
26/09:00pm 25.0 20.9 2.4 23 11.0 SW 13 13 7 7 1007.2 1006.2 0.0
26/08:30pm 27.5 23.2 1.1 18 12.7 SSW 13 17 7 9 1006.7 1005.6 0.0
26/08:00pm 28.8 23.4 1.3 17 13.5 SSW 19 22 10 12 1006.2 1005.1 0.0
26/07:30pm 29.6 24.7 2.0 17 13.7 SSW 17 20 9 11 1005.8 1004.7 0.0
26/07:00pm 30.8 25.5 2.1 16 14.5 SSW 19 24 10 13 1005.5 1004.4 0.0
26/06:30pm 31.4 25.5 1.7 15 14.9 SSW 22 32 12 17 1005.3 1004.2 0.0
26/06:00pm 32.2 27.1 4.1 17 14.8 SW 20 33 11 18 1005.1 1004.0 0.0
26/05:30pm 32.4 27.2 3.4 16 15.0 SW 20 30 11 16 1005.2 1004.1 0.0
26/05:00pm 32.0 26.9 3.9 17 14.7 SSW 20 33 11 18 1005.3 1004.2 0.0
26/04:30pm 31.6 25.9 2.7 16 14.7 SW 22 39 12 21 1005.4 1004.3 0.0
26/04:00pm 31.6 26.4 3.6 17 14.5 WSW 20 28 11 15 1005.7 1004.6 0.0
26/03:30pm 31.8 27.9 5.3 19 14.1 SSW 15 28 8 15 1006.0 1004.9 0.0
26/03:00pm 32.3 26.5 4.2 17 14.8 WSW 24 35 13 19 1006.7 1005.6 0.0
26/02:30pm 31.5 27.5 6.5 21 13.6 WSW 17 35 9 19 1007.0 1006.0 0.0
26/02:00pm 30.9 25.9 4.6 19 13.8 W 20 32 11 17 1007.2 1006.2 0.0
26/01:30pm 30.9 26.3 8.0 24 12.7 WSW 22 32 12 17 1007.6 1006.6 0.0
26/01:00pm 30.1 27.5 10.6 30 11.2 WSW 15 24 8 13 1007.8 1006.8 0.0
26/12:30pm 29.1 26.0 8.7 28 11.3 SW 15 22 8 12 1008.2 1007.2 0.0
26/12:00pm 28.6 27.4 12.9 38 9.3 W 11 19 6 10 1008.5 1007.5 0.0
26/11:30am 28.9 28.2 15.4 44 8.3 NW 13 19 7 10 1008.8 1007.7 0.0
26/11:00am 27.8 27.1 15.5 47 7.6 NW 13 20 7 11 1009.1 1008.0 0.0
26/10:30am 26.8 26.7 17.0 55 6.2 WNW 13 20 7 11 1009.9 1008.8 0.0
26/10:00am 25.2 24.1 16.3 57 5.5 N 17 24 9 13 1009.4 1008.3 0.0
26/09:30am 23.9 23.5 17.2 66 4.2 NNE 15 20 8 11 1009.5 1008.4 0.0
26/09:00am 22.4 23.2 17.3 73 3.2 NE 9 13 5 7 1009.8 1008.7 0.0
26/08:30am 21.0 20.5 17.0 78 2.5 NE 15 20 8 11 1009.2 1008.1 0.0
26/08:00am 19.8 21.1 17.6 87 1.4 NE 7 9 4 5 1009.4 1008.3 0.0
26/07:30am 18.6 19.6 16.9 90 1.0 NE 7 9 4 5 1009.5 1008.4 0.0
26/07:00am 17.9 18.7 16.4 91 0.9 NE 7 9 4 5 1009.0 1007.9 0.0
26/06:30am 17.5 18.2 15.5 88 1.2 NE 6 9 3 5 1008.9 1007.8 0.0
26/06:00am 18.2 20.0 15.6 85 1.5 CALM 0 0 0 0 1009.0 1007.9 0.0
26/05:30am 18.3 20.1 15.4 83 1.7 CALM 0 0 0 0 1009.0 1007.9 0.0
26/05:00am 18.7 20.5 15.4 81 2.0 CALM 0 0 0 0 1008.8 1007.7 0.0
26/04:30am 19.7 21.9 16.5 82 1.9 CALM 0 0 0 0 1008.8 1007.7 0.0
26/04:00am 19.7 21.6 15.8 78 2.3 CALM 0 0 0 0 1008.9 1007.8 0.0
26/03:30am 20.2 21.8 16.0 77 2.5 NNE 2 6 1 3 1009.0 1007.9 0.0
26/03:00am 20.3 21.0 16.1 77 2.5 NNE 7 11 4 6 1009.3 1008.2 0.0
26/02:30am 20.7 22.3 15.9 74 2.9 NE 2 9 1 5 1009.3 1008.2 0.0
26/02:00am 21.2 21.9 16.0 72 3.2 NE 7 9 4 5 1009.7 1008.6 0.0
26/01:30am 21.9 21.4 16.0 69 3.6 NE 13 17 7 9 1009.8 1008.7 0.0
26/01:00am 22.2 21.0 16.0 68 3.8 NE 17 24 9 13 1010.0 1008.9 0.0
26/12:30am 22.6 21.1 16.2 67 3.9 NE 19 26 10 14 1010.2 1009.1 0.0
26/12:00am 23.0 21.0 16.5 67 4.0 ENE 22 30 12 16 1010.3 1009.2 0.0
 
Date/Time
EDT
Temp
°C
App
Temp
°C
Dew
Point
Rel
Hum
%
Delta-T
°C
Wind Press
QNH
hPa
Press
MSL
hPa
Rain
since 9 am
mm
Dir
 
Spd
km/h
Gust
km/h
Spd
kts
Gust
kts
25/11:30pm 23.7 22.9 17.0 66 4.2 NE 17 22 9 12 1010.3 1009.2 0.0

Other Formats:

Comma delimited format used in spreadsheet applications
http://www.bom.gov.au/fwo/IDN60801/IDN60801.95708.axf

JavaScript Object Notation format (JSON) in row-major order
http://www.bom.gov.au/fwo/IDN60801/IDN60801.95708.json